Time;durP1;ratioP1;P1;durP2;ratioP2;P2;SDS_P1;SDS_P2;PMS_P1;PMS_P2;Temp;Humidity;BMP_temperature;BMP_pressure;BME280_temperature;BME280_humidity;BME280_pressure;Samples;Min_cycle;Max_cycle;Signal;HPM_P1;HPM_P2
2023/12/23 00:00:52;;;;;;;9.65;5.38;;;5.50;99.90;;;;;;5017520;28;20772;-77
2023/12/23 00:03:20;;;;;;;10.63;6.28;;;5.50;99.90;;;;;;5031365;28;20065;-76
2023/12/23 00:05:47;;;;;;;8.60;5.95;;;5.50;99.90;;;;;;5036006;28;20060;-75
2023/12/23 00:08:14;;;;;;;12.25;6.85;;;5.50;99.90;;;;;;5039670;28;20063;-76
2023/12/23 00:10:41;;;;;;;8.40;6.50;;;5.50;99.90;;;;;;5020718;28;20541;-77
2023/12/23 00:13:08;;;;;;;8.68;6.80;;;5.50;99.90;;;;;;5037880;28;20051;-76
2023/12/23 00:15:35;;;;;;;13.48;7.00;;;5.50;99.90;;;;;;5039498;28;20045;-77
2023/12/23 00:18:02;;;;;;;10.32;7.38;;;5.50;99.90;;;;;;5016012;28;20055;-78
2023/12/23 00:20:30;;;;;;;15.80;8.38;;;5.40;99.90;;;;;;5018567;28;20136;-76
2023/12/23 00:22:58;;;;;;;9.65;7.35;;;5.50;99.90;;;;;;5034518;28;20053;-77
2023/12/23 00:25:25;;;;;;;9.05;7.93;;;5.50;99.90;;;;;;5025726;28;20042;-76
2023/12/23 00:27:51;;;;;;;10.10;7.75;;;5.40;99.90;;;;;;5016213;28;20558;-77
2023/12/23 00:30:19;;;;;;;14.15;8.57;;;5.40;99.90;;;;;;5037701;28;20041;-77
2023/12/23 00:32:46;;;;;;;11.57;9.35;;;5.40;99.90;;;;;;5031454;28;20053;-76
2023/12/23 00:35:13;;;;;;;10.50;9.40;;;5.40;99.90;;;;;;5041690;28;20045;-76
2023/12/23 00:37:41;;;;;;;10.00;9.07;;;5.40;99.90;;;;;;5032997;28;20052;-75
2023/12/23 00:40:08;;;;;;;12.00;8.73;;;5.40;99.90;;;;;;5015800;28;20041;-77
2023/12/23 00:42:36;;;;;;;13.85;8.75;;;5.40;99.90;;;;;;5032816;28;20037;-77
2023/12/23 00:45:05;;;;;;;11.82;8.70;;;5.40;99.90;;;;;;5034234;28;20053;-77
2023/12/23 00:47:33;;;;;;;16.52;9.13;;;5.40;99.90;;;;;;5025973;28;20049;-77
2023/12/23 00:50:04;;;;;;;9.02;8.23;;;5.30;99.90;;;;;;5015549;28;20710;-77
2023/12/23 00:52:31;;;;;;;11.88;8.65;;;5.30;99.90;;;;;;5018395;28;20685;-77
2023/12/23 00:54:59;;;;;;;11.15;8.38;;;5.30;99.90;;;;;;5027225;28;20096;-75
2023/12/23 00:57:27;;;;;;;9.10;7.22;;;5.30;99.90;;;;;;5016725;28;20033;-75
2023/12/23 00:59:55;;;;;;;15.50;7.38;;;5.30;99.90;;;;;;5034261;28;20044;-77
2023/12/23 01:02:23;;;;;;;9.45;7.13;;;5.30;99.90;;;;;;5029852;28;20037;-76
2023/12/23 01:04:49;;;;;;;8.70;7.20;;;5.30;99.90;;;;;;5030423;28;20048;-76
2023/12/23 01:07:16;;;;;;;16.92;7.63;;;5.20;99.90;;;;;;5030641;28;20053;-77
2023/12/23 01:09:43;;;;;;;11.82;6.78;;;5.20;99.90;;;;;;5014589;28;20060;-77
2023/12/23 01:12:10;;;;;;;11.45;7.10;;;5.20;99.90;;;;;;5034718;28;20576;-76
2023/12/23 01:14:37;;;;;;;10.38;7.20;;;5.20;99.90;;;;;;5031359;28;20127;-77
2023/12/23 01:17:05;;;;;;;20.98;7.70;;;5.20;99.90;;;;;;5026502;28;20045;-76
2023/12/23 01:19:32;;;;;;;15.90;7.57;;;5.20;99.90;;;;;;5028422;28;20099;-75
2023/12/23 01:22:00;;;;;;;14.05;7.55;;;5.20;99.90;;;;;;5029582;28;20051;-76
2023/12/23 01:24:27;;;;;;;11.57;7.47;;;5.20;99.90;;;;;;5028242;28;20098;-76
2023/12/23 01:26:55;;;;;;;8.50;7.47;;;5.20;99.90;;;;;;5011578;28;20055;-75
2023/12/23 01:29:22;;;;;;;11.82;8.63;;;5.20;99.90;;;;;;5025933;28;20051;-77
2023/12/23 01:31:49;;;;;;;10.48;8.40;;;5.20;99.90;;;;;;5028705;28;20060;-76
2023/12/23 01:34:16;;;;;;;13.10;8.65;;;5.20;99.90;;;;;;5032199;28;20744;-77
2023/12/23 01:36:43;;;;;;;9.57;7.80;;;5.20;99.90;;;;;;5030205;28;20147;-77
2023/12/23 01:39:10;;;;;;;13.18;6.13;;;5.10;99.90;;;;;;5026146;28;20767;-77
2023/12/23 01:41:36;;;;;;;7.40;5.05;;;4.90;99.90;;;;;;5026286;28;20037;-77
2023/12/23 01:44:03;;;;;;;7.90;5.38;;;4.80;99.90;;;;;;5013122;28;20063;-78
2023/12/23 01:46:31;;;;;;;14.15;4.55;;;4.80;99.90;;;;;;5011084;28;20048;-75
2023/12/23 01:49:00;;;;;;;11.40;4.15;;;4.80;99.90;;;;;;5013797;28;20545;-76
2023/12/23 01:51:28;;;;;;;17.83;4.45;;;4.90;99.90;;;;;;5018943;28;20140;-76
2023/12/23 01:54:03;;;;;;;14.82;4.50;;;4.80;99.90;;;;;;5038623;28;20040;-75
2023/12/23 01:56:32;;;;;;;11.65;4.05;;;4.90;99.90;;;;;;5050616;28;20055;-75
2023/12/23 01:59:02;;;;;;;19.27;5.90;;;4.90;99.90;;;;;;5028534;28;20055;-77
2023/12/23 02:01:31;;;;;;;9.85;3.60;;;4.90;99.90;;;;;;5031068;28;20048;-76
2023/12/23 02:03:59;;;;;;;12.50;3.30;;;4.90;99.90;;;;;;5011182;28;20499;-76
2023/12/23 02:06:26;;;;;;;9.43;3.55;;;5.00;99.90;;;;;;5033400;28;20842;-77
2023/12/23 02:08:53;;;;;;;13.20;3.25;;;5.00;99.90;;;;;;5010997;28;20041;-76
2023/12/23 02:11:57;;;;;;;8.60;3.03;;;5.00;99.90;;;;;;5018910;28;20052;-78
2023/12/23 02:14:50;;;;;;;8.23;2.95;;;5.00;99.90;;;;;;5009308;28;20061;-76
2023/12/23 02:17:17;;;;;;;7.80;3.20;;;5.00;99.90;;;;;;5014033;28;20099;-77
2023/12/23 02:19:44;;;;;;;17.23;4.57;;;5.00;99.90;;;;;;5010054;28;20122;-77
2023/12/23 02:22:11;;;;;;;13.85;3.95;;;5.10;99.90;;;;;;5027339;28;20055;-77
2023/12/23 02:24:38;;;;;;;20.58;4.38;;;5.10;99.90;;;;;;5031060;28;20045;-76
2023/12/23 02:27:11;;;;;;;14.68;4.47;;;5.10;99.90;;;;;;5013496;28;20036;-77
2023/12/23 02:29:40;;;;;;;11.85;4.10;;;5.20;99.90;;;;;;5025271;28;20041;-77
2023/12/23 02:32:09;;;;;;;16.77;3.72;;;5.10;99.90;;;;;;5026185;28;20090;-77
2023/12/23 02:34:36;;;;;;;29.00;4.25;;;5.10;99.90;;;;;;5011987;28;20045;-77
2023/12/23 02:37:04;;;;;;;12.88;3.65;;;5.20;99.90;;;;;;5012353;28;20703;-78
2023/12/23 02:39:30;;;;;;;7.93;3.60;;;5.10;99.90;;;;;;5017511;28;20080;-76
2023/12/23 02:41:58;;;;;;;21.23;5.72;;;5.20;99.90;;;;;;5026551;28;20067;-78
2023/12/23 02:44:24;;;;;;;9.15;3.60;;;5.20;99.90;;;;;;5044997;28;20052;-77
2023/12/23 02:46:51;;;;;;;14.75;4.60;;;5.20;99.90;;;;;;5024930;28;20124;-76
2023/12/23 02:49:18;;;;;;;17.20;5.30;;;5.20;99.90;;;;;;5029128;28;20079;-77
2023/12/23 02:51:45;;;;;;;9.60;3.45;;;5.20;99.90;;;;;;5016059;28;20045;-79
2023/12/23 02:54:12;;;;;;;13.55;3.65;;;5.20;99.90;;;;;;5028100;28;20060;-77
2023/12/23 02:56:39;;;;;;;10.73;2.92;;;5.20;99.90;;;;;;5022925;28;20095;-76
2023/12/23 02:59:06;;;;;;;20.60;3.00;;;5.20;99.90;;;;;;5012295;28;20037;-77
2023/12/23 03:01:33;;;;;;;13.55;3.03;;;5.20;99.90;;;;;;5008579;28;20047;-78
2023/12/23 03:04:00;;;;;;;8.68;2.67;;;5.20;99.90;;;;;;5024926;28;20673;-77
2023/12/23 03:06:27;;;;;;;6.60;2.22;;;5.20;99.90;;;;;;5025560;28;20065;-78
2023/12/23 03:08:54;;;;;;;13.52;2.92;;;5.20;99.90;;;;;;5030106;28;20172;-76
2023/12/23 03:11:21;;;;;;;11.35;3.28;;;5.20;99.90;;;;;;5028969;28;20123;-77
2023/12/23 03:13:52;;;;;;;14.25;3.15;;;5.20;99.90;;;;;;5026233;28;20098;-77
2023/12/23 03:16:20;;;;;;;12.23;2.88;;;5.20;99.90;;;;;;5025764;28;20256;-77
2023/12/23 03:18:46;;;;;;;9.93;3.30;;;5.20;99.90;;;;;;5029068;28;20041;-77
2023/12/23 03:21:14;;;;;;;11.75;3.63;;;5.20;99.90;;;;;;5006643;28;20053;-77
2023/12/23 03:23:41;;;;;;;13.98;3.20;;;5.20;99.90;;;;;;5026196;28;20064;-77
2023/12/23 03:26:09;;;;;;;7.88;3.33;;;5.30;99.90;;;;;;5006197;28;20170;-78
2023/12/23 03:28:36;;;;;;;16.08;3.35;;;5.20;99.90;;;;;;5013272;28;20734;-78
2023/12/23 03:31:03;;;;;;;11.88;3.25;;;5.20;99.90;;;;;;5024427;28;20589;-77
2023/12/23 03:33:29;;;;;;;8.43;2.92;;;5.20;99.90;;;;;;5025203;28;20565;-78
2023/12/23 03:36:00;;;;;;;9.52;2.85;;;5.20;99.90;;;;;;5010280;28;20682;-77
2023/12/23 03:38:26;;;;;;;12.00;4.28;;;5.20;99.90;;;;;;5027793;28;20051;-78
2023/12/23 03:40:54;;;;;;;12.02;2.78;;;5.20;99.90;;;;;;5010002;28;20139;-77
2023/12/23 03:43:20;;;;;;;10.07;3.78;;;5.20;99.90;;;;;;5011669;28;20396;-77
2023/12/23 03:45:47;;;;;;;15.48;3.05;;;5.20;99.90;;;;;;5020293;28;20740;-77
2023/12/23 03:48:14;;;;;;;10.13;2.58;;;5.20;99.90;;;;;;5038052;28;22213;-77
2023/12/23 03:50:41;;;;;;;15.98;2.58;;;5.20;99.90;;;;;;5020602;28;20168;-77
2023/12/23 03:53:08;;;;;;;8.90;2.65;;;5.20;99.90;;;;;;5030212;28;20106;-75
2023/12/23 03:55:37;;;;;;;12.02;2.90;;;5.10;99.90;;;;;;5020690;28;20109;-76
2023/12/23 03:58:05;;;;;;;11.57;2.65;;;5.10;99.90;;;;;;5023537;28;21170;-76
2023/12/23 04:00:32;;;;;;;9.85;2.33;;;5.00;99.90;;;;;;5024232;28;20053;-75
2023/12/23 04:02:58;;;;;;;10.10;2.00;;;5.00;99.90;;;;;;5022704;28;20040;-77
2023/12/23 04:05:25;;;;;;;10.13;1.95;;;5.00;99.90;;;;;;5010284;28;20867;-77
2023/12/23 04:07:52;;;;;;;5.65;1.67;;;4.90;99.90;;;;;;5023323;28;20088;-76
2023/12/23 04:10:19;;;;;;;10.32;1.92;;;4.80;99.90;;;;;;5007199;28;20537;-78
2023/12/23 04:12:47;;;;;;;8.95;1.70;;;4.60;99.90;;;;;;5019626;28;20536;-77
2023/12/23 04:15:14;;;;;;;6.18;1.63;;;4.50;99.90;;;;;;5015301;28;21523;-77
2023/12/23 04:17:42;;;;;;;8.65;1.73;;;4.40;99.90;;;;;;5021592;28;20046;-77
2023/12/23 04:20:10;;;;;;;3.20;1.48;;;4.30;99.90;;;;;;5017503;28;20408;-80
2023/12/23 04:22:37;;;;;;;8.55;1.63;;;4.10;99.90;;;;;;5011137;28;20534;-78
2023/12/23 04:25:05;;;;;;;4.75;1.20;;;4.10;99.90;;;;;;5023533;28;20049;-78
2023/12/23 04:27:32;;;;;;;3.92;1.30;;;4.10;99.90;;;;;;5026436;28;20728;-80
2023/12/23 04:29:59;;;;;;;6.55;1.52;;;4.10;99.90;;;;;;5021330;28;20053;-79
2023/12/23 04:32:27;;;;;;;10.20;1.67;;;4.20;99.90;;;;;;5009086;28;20716;-81
2023/12/23 04:34:55;;;;;;;7.72;1.30;;;4.20;99.90;;;;;;5024508;28;22072;-79
2023/12/23 04:37:26;;;;;;;7.68;1.50;;;4.20;99.90;;;;;;5020461;28;20043;-80
2023/12/23 04:39:55;;;;;;;8.18;1.90;;;4.20;99.90;;;;;;5016700;28;20041;-80
2023/12/23 04:42:22;;;;;;;9.07;1.95;;;4.30;99.90;;;;;;5024827;28;20043;-80
2023/12/23 04:44:49;;;;;;;3.58;1.65;;;4.30;99.90;;;;;;5026562;28;20096;-81
2023/12/23 04:47:16;;;;;;;5.28;2.03;;;4.30;99.90;;;;;;5001456;28;20210;-81
2023/12/23 04:49:46;;;;;;;4.15;1.45;;;4.40;99.90;;;;;;5010115;28;20132;-81
2023/12/23 04:52:13;;;;;;;6.65;1.73;;;4.40;99.90;;;;;;5015698;28;20044;-80
2023/12/23 04:54:42;;;;;;;7.32;1.95;;;4.40;99.90;;;;;;5025251;28;20083;-81
2023/12/23 04:57:14;;;;;;;5.85;1.67;;;4.50;99.90;;;;;;5007866;28;20104;-81
2023/12/23 04:59:44;;;;;;;5.93;2.10;;;4.50;99.90;;;;;;5012323;28;20045;-82
2023/12/23 05:02:19;;;;;;;6.90;2.97;;;4.60;99.90;;;;;;5019461;28;21488;-80
2023/12/23 05:04:46;;;;;;;10.50;3.60;;;4.60;99.90;;;;;;5022485;28;20046;-80
2023/12/23 05:07:13;;;;;;;9.35;3.88;;;4.70;99.90;;;;;;4996310;28;20057;-78
2023/12/23 05:09:40;;;;;;;7.47;3.47;;;4.70;99.90;;;;;;5029118;28;20084;-81
2023/12/23 05:12:07;;;;;;;10.25;4.20;;;4.70;99.90;;;;;;5018486;28;20051;-80
2023/12/23 05:14:34;;;;;;;9.40;4.35;;;4.70;99.90;;;;;;5018057;28;20045;-82
2023/12/23 05:17:01;;;;;;;10.13;4.30;;;4.70;99.90;;;;;;5017218;28;20045;-77
2023/12/23 05:19:29;;;;;;;11.75;4.47;;;4.70;99.90;;;;;;5028524;28;20071;-80
2023/12/23 05:21:56;;;;;;;10.00;4.03;;;4.70;99.90;;;;;;5027924;28;20033;-80
2023/12/23 05:24:22;;;;;;;6.10;3.30;;;4.70;99.90;;;;;;5028646;28;20132;-79
2023/12/23 05:26:52;;;;;;;10.35;4.43;;;4.70;99.90;;;;;;5026519;28;20090;-79
2023/12/23 05:29:20;;;;;;;9.88;4.55;;;4.70;99.90;;;;;;5010362;28;20049;-78
2023/12/23 05:31:47;;;;;;;8.50;4.47;;;4.80;99.90;;;;;;5049882;28;20044;-77
2023/12/23 05:34:14;;;;;;;11.70;5.53;;;4.80;99.90;;;;;;5038822;28;20053;-77
2023/12/23 05:36:44;;;;;;;9.02;5.00;;;4.90;99.90;;;;;;5036597;28;20083;-78
2023/12/23 05:39:11;;;;;;;35.40;7.15;;;4.90;99.90;;;;;;5022734;28;20085;-78
2023/12/23 05:41:38;;;;;;;16.80;6.05;;;5.00;99.90;;;;;;5018748;28;20055;-79
2023/12/23 05:44:07;;;;;;;9.98;4.05;;;5.00;99.90;;;;;;5009741;28;20052;-78
2023/12/23 05:46:35;;;;;;;9.35;3.80;;;5.00;99.90;;;;;;5031687;28;20037;-80
2023/12/23 05:49:05;;;;;;;12.35;5.10;;;5.10;99.90;;;;;;5012726;28;20037;-79
2023/12/23 05:51:33;;;;;;;6.15;4.40;;;5.10;99.90;;;;;;5025754;28;20071;-79
2023/12/23 05:54:02;;;;;;;9.98;6.03;;;5.10;99.90;;;;;;5024192;28;20081;-80
2023/12/23 05:56:32;;;;;;;4.95;3.25;;;5.10;99.90;;;;;;5022928;28;20195;-80
2023/12/23 05:58:59;;;;;;;5.95;3.72;;;5.10;99.90;;;;;;5030701;28;20070;-79
2023/12/23 06:01:29;;;;;;;7.60;3.50;;;5.10;99.90;;;;;;5015365;28;20037;-79
2023/12/23 06:04:01;;;;;;;4.90;3.35;;;5.20;99.90;;;;;;5007257;28;20044;-79
2023/12/23 06:06:28;;;;;;;9.43;4.32;;;5.20;99.90;;;;;;5026787;28;20049;-80
2023/12/23 06:08:58;;;;;;;6.15;3.85;;;5.20;99.90;;;;;;5025925;28;20053;-80
2023/12/23 06:11:28;;;;;;;10.63;4.22;;;5.30;99.90;;;;;;4995069;28;20675;-81
2023/12/23 06:13:56;;;;;;;6.40;3.78;;;5.30;99.90;;;;;;5026701;28;20052;-79
2023/12/23 06:16:23;;;;;;;10.05;4.53;;;5.30;99.90;;;;;;5027339;28;21451;-79
2023/12/23 06:18:52;;;;;;;7.88;4.35;;;5.40;99.90;;;;;;5032840;28;20037;-80
2023/12/23 06:21:19;;;;;;;7.60;4.32;;;5.40;99.90;;;;;;5016181;28;20064;-79
2023/12/23 06:23:52;;;;;;;7.63;4.32;;;5.50;99.90;;;;;;5036070;28;20049;-79
2023/12/23 06:26:21;;;;;;;10.43;3.85;;;5.50;99.90;;;;;;5019689;28;20060;-79
2023/12/23 06:28:51;;;;;;;10.68;4.93;;;5.50;99.90;;;;;;5030358;28;20041;-79
2023/12/23 06:31:18;;;;;;;18.05;5.25;;;5.50;99.90;;;;;;5050795;28;20061;-79
2023/12/23 06:33:45;;;;;;;24.02;9.05;;;5.50;99.90;;;;;;5037777;28;20041;-79
2023/12/23 06:36:12;;;;;;;25.27;9.57;;;5.50;99.90;;;;;;5036010;28;20072;-78
2023/12/23 06:38:40;;;;;;;36.50;10.63;;;5.50;99.90;;;;;;5036637;28;20049;-79
2023/12/23 06:41:11;;;;;;;29.67;10.20;;;5.60;99.90;;;;;;5030344;28;20056;-78
2023/12/23 06:43:39;;;;;;;23.98;11.18;;;5.60;99.90;;;;;;5079955;28;20037;-81
2023/12/23 06:46:20;;;;;;;22.48;10.27;;;5.80;99.90;;;;;;5038410;28;20072;-81
2023/12/23 06:48:47;;;;;;;30.10;14.52;;;5.90;99.90;;;;;;5050859;28;20045;-81
2023/12/23 06:51:14;;;;;;;33.78;16.20;;;6.10;99.90;;;;;;5042194;28;20067;-80
2023/12/23 06:53:44;;;;;;;38.22;17.90;;;6.30;99.90;;;;;;5050870;28;20045;-80
2023/12/23 06:56:11;;;;;;;37.15;16.00;;;6.60;99.90;;;;;;5044956;28;20068;-78
2023/12/23 06:58:38;;;;;;;34.50;16.92;;;6.70;99.90;;;;;;5043724;28;20033;-78
2023/12/23 07:01:05;;;;;;;30.33;15.98;;;6.90;99.90;;;;;;5036538;28;20814;-77
2023/12/23 07:03:32;;;;;;;31.65;17.25;;;7.10;99.90;;;;;;5030247;28;20037;-78
2023/12/23 07:06:00;;;;;;;38.47;20.65;;;7.20;99.90;;;;;;5051906;28;20064;-84
2023/12/23 07:08:30;;;;;;;34.67;17.63;;;7.30;99.90;;;;;;5033725;28;20052;-84
2023/12/23 07:11:01;;;;;;;47.10;22.17;;;7.30;99.90;;;;;;5052418;28;20025;-80
2023/12/23 07:13:29;;;;;;;38.15;20.23;;;7.30;99.90;;;;;;5029487;28;20098;-79
2023/12/23 07:16:00;;;;;;;39.35;20.42;;;7.40;99.90;;;;;;5049530;28;20049;-79
2023/12/23 07:18:33;;;;;;;33.28;19.13;;;7.40;99.90;;;;;;5056321;28;20041;-79
2023/12/23 07:21:00;;;;;;;49.47;23.20;;;7.40;99.90;;;;;;5028311;28;20048;-79
2023/12/23 07:23:29;;;;;;;33.72;19.40;;;7.50;99.90;;;;;;5037619;28;20713;-79
2023/12/23 07:25:58;;;;;;;36.35;21.30;;;7.40;99.90;;;;;;5029172;28;20072;-79
2023/12/23 07:28:25;;;;;;;42.65;22.83;;;7.50;99.90;;;;;;5017366;28;20054;-79
2023/12/23 07:30:52;;;;;;;40.22;21.98;;;7.60;99.90;;;;;;5018580;28;20056;-80
2023/12/23 07:33:20;;;;;;;40.25;20.83;;;7.60;99.90;;;;;;5027592;28;20046;-77
2023/12/23 07:35:50;;;;;;;31.40;16.65;;;7.50;99.90;;;;;;5003486;28;20042;-77
2023/12/23 07:38:17;;;;;;;35.58;20.52;;;7.60;99.90;;;;;;5011463;28;20045;-76
2023/12/23 07:40:44;;;;;;;32.05;19.02;;;7.60;99.90;;;;;;5024868;28;20045;-77
2023/12/23 07:43:11;;;;;;;31.15;18.67;;;7.60;99.90;;;;;;5008057;28;20053;-76
2023/12/23 07:45:38;;;;;;;31.67;18.23;;;7.60;99.90;;;;;;5019956;28;20041;-75
2023/12/23 07:48:05;;;;;;;36.53;17.80;;;7.60;99.90;;;;;;5003871;28;20044;-76
2023/12/23 07:50:32;;;;;;;23.83;14.82;;;7.70;99.90;;;;;;5020400;28;20053;-76
2023/12/23 07:53:02;;;;;;;36.17;17.83;;;7.70;99.90;;;;;;5007943;28;20655;-75
2023/12/23 07:55:29;;;;;;;41.88;22.40;;;7.70;99.90;;;;;;5028055;28;20049;-77
2023/12/23 07:57:56;;;;;;;33.83;17.50;;;7.70;99.90;;;;;;5024630;28;20048;-75
2023/12/23 08:00:23;;;;;;;28.73;16.25;;;7.70;99.90;;;;;;5018192;28;20067;-76
2023/12/23 08:02:49;;;;;;;31.77;19.15;;;7.70;99.90;;;;;;5021594;28;20042;-74
2023/12/23 08:05:17;;;;;;;29.52;16.67;;;7.70;99.90;;;;;;5029772;28;20049;-77
2023/12/23 08:07:44;;;;;;;23.08;15.05;;;7.70;99.90;;;;;;5031639;28;20067;-76
2023/12/23 08:10:11;;;;;;;30.77;18.00;;;7.70;99.90;;;;;;5029410;28;20049;-75
2023/12/23 08:12:39;;;;;;;39.53;22.23;;;7.70;99.90;;;;;;5024505;28;20040;-79
2023/12/23 08:15:07;;;;;;;33.47;18.33;;;7.70;99.90;;;;;;5033458;28;20045;-78
2023/12/23 08:17:34;;;;;;;31.10;19.00;;;7.70;99.90;;;;;;5019451;28;20049;-78
2023/12/23 08:20:01;;;;;;;31.00;17.98;;;7.70;99.90;;;;;;5023997;28;20420;-79
2023/12/23 08:22:28;;;;;;;32.38;18.35;;;7.80;99.90;;;;;;5005324;28;20047;-78
2023/12/23 08:24:55;;;;;;;33.42;17.90;;;7.80;99.90;;;;;;5025464;28;20664;-77
2023/12/23 08:27:22;;;;;;;34.03;19.42;;;7.80;99.90;;;;;;5023571;28;20106;-77
2023/12/23 08:29:49;;;;;;;34.92;19.40;;;7.80;99.90;;;;;;5019176;28;20052;-78
2023/12/23 08:32:16;;;;;;;23.67;15.85;;;7.80;99.90;;;;;;5020493;28;20049;-78
2023/12/23 08:34:46;;;;;;;28.27;17.83;;;7.80;99.90;;;;;;5006678;28;20071;-79
2023/12/23 08:37:13;;;;;;;29.17;17.10;;;7.80;99.90;;;;;;5031511;28;20044;-75
2023/12/23 08:39:40;;;;;;;30.17;16.33;;;7.80;99.90;;;;;;5046042;28;20051;-78
2023/12/23 08:42:07;;;;;;;21.75;12.98;;;7.80;99.90;;;;;;5032220;28;20041;-77
2023/12/23 08:44:34;;;;;;;29.05;17.00;;;7.80;99.90;;;;;;5019012;28;20047;-78
2023/12/23 08:47:01;;;;;;;29.33;16.70;;;7.80;99.90;;;;;;5024390;28;20045;-76
2023/12/23 08:49:29;;;;;;;21.42;14.68;;;7.80;99.90;;;;;;5023708;28;20712;-75
2023/12/23 08:51:55;;;;;;;23.80;13.48;;;7.90;99.90;;;;;;5032593;28;20048;-77
2023/12/23 08:54:23;;;;;;;23.90;15.13;;;7.80;99.90;;;;;;5028872;28;20474;-75
2023/12/23 08:56:49;;;;;;;26.27;13.93;;;7.90;99.90;;;;;;5011211;28;20044;-76
2023/12/23 08:59:19;;;;;;;17.80;10.68;;;7.80;99.90;;;;;;5012173;28;20049;-76
2023/12/23 09:01:46;;;;;;;29.17;14.10;;;7.90;99.90;;;;;;5022252;28;20037;-76
2023/12/23 09:04:13;;;;;;;33.65;17.10;;;7.90;99.90;;;;;;5042909;28;20075;-76
2023/12/23 09:06:40;;;;;;;23.65;14.38;;;7.90;99.90;;;;;;5033844;28;20134;-76
2023/12/23 09:09:07;;;;;;;20.58;12.00;;;7.90;99.90;;;;;;5023899;28;20127;-76
2023/12/23 09:11:43;;;;;;;17.95;12.13;;;7.90;99.90;;;;;;5038758;28;20100;-77
2023/12/23 09:14:10;;;;;;;23.58;12.40;;;7.90;99.90;;;;;;5060645;28;20072;-74
2023/12/23 09:16:38;;;;;;;20.52;12.18;;;7.90;99.90;;;;;;5049953;28;20059;-76
2023/12/23 09:19:05;;;;;;;21.08;10.98;;;7.90;99.90;;;;;;5048877;28;20661;-76
2023/12/23 09:21:33;;;;;;;18.25;12.93;;;7.90;99.90;;;;;;5017275;28;20040;-76
2023/12/23 09:23:59;;;;;;;24.50;12.63;;;8.00;99.90;;;;;;5029288;28;20033;-76
2023/12/23 09:26:26;;;;;;;17.70;11.27;;;8.00;99.90;;;;;;5022824;28;20037;-76
2023/12/23 09:28:53;;;;;;;16.42;10.77;;;8.00;99.90;;;;;;5028083;28;20578;-76
2023/12/23 09:31:20;;;;;;;14.60;9.32;;;8.10;99.90;;;;;;5026019;28;20585;-75
2023/12/23 09:33:47;;;;;;;20.73;11.32;;;8.00;99.90;;;;;;5046546;28;20507;-76
2023/12/23 09:36:14;;;;;;;19.38;9.13;;;8.10;99.90;;;;;;5038682;28;20139;-75
2023/12/23 09:38:41;;;;;;;17.65;8.60;;;8.10;99.90;;;;;;5021422;28;20052;-76
2023/12/23 09:41:08;;;;;;;16.38;10.32;;;8.10;99.90;;;;;;5012852;28;20060;-75
2023/12/23 09:43:35;;;;;;;17.50;10.25;;;8.10;99.90;;;;;;5035493;28;20535;-76
2023/12/23 09:46:04;;;;;;;14.65;8.25;;;8.10;99.90;;;;;;5016534;28;20128;-75
2023/12/23 09:48:31;;;;;;;13.73;7.28;;;8.10;99.90;;;;;;5032438;28;20135;-76
2023/12/23 09:51:00;;;;;;;15.38;9.27;;;8.10;99.90;;;;;;5024823;28;20288;-75
2023/12/23 09:53:27;;;;;;;17.25;8.32;;;8.10;99.90;;;;;;5027875;28;20064;-75
2023/12/23 09:55:54;;;;;;;19.35;9.77;;;8.10;99.90;;;;;;5012693;28;20053;-76
2023/12/23 09:58:21;;;;;;;19.70;9.50;;;8.10;99.90;;;;;;5007462;28;20070;-76
2023/12/23 10:00:48;;;;;;;23.00;9.10;;;8.10;99.90;;;;;;5031863;28;20044;-76
2023/12/23 10:03:15;;;;;;;16.92;9.25;;;8.10;99.90;;;;;;5019840;28;20052;-77
2023/12/23 10:05:42;;;;;;;19.42;10.02;;;8.20;99.90;;;;;;5011336;28;20052;-76
2023/12/23 10:08:09;;;;;;;21.00;8.60;;;8.10;99.90;;;;;;5015586;28;20099;-75
2023/12/23 10:10:36;;;;;;;12.02;7.78;;;8.20;99.90;;;;;;5014904;28;20095;-77
2023/12/23 10:13:04;;;;;;;14.25;8.13;;;8.20;99.90;;;;;;5029451;28;20045;-77
2023/12/23 10:15:31;;;;;;;19.40;8.90;;;8.20;99.90;;;;;;5043448;28;20045;-75
2023/12/23 10:18:02;;;;;;;22.23;8.35;;;8.20;99.90;;;;;;5038923;28;20037;-76
2023/12/23 10:20:29;;;;;;;15.63;8.60;;;8.20;99.90;;;;;;5010404;28;20049;-77
2023/12/23 10:22:56;;;;;;;15.05;7.47;;;8.20;99.90;;;;;;5014641;28;20404;-76
2023/12/23 10:25:23;;;;;;;16.20;7.45;;;8.20;99.90;;;;;;5024601;28;20046;-76
2023/12/23 10:27:54;;;;;;;18.25;7.70;;;8.30;99.90;;;;;;5048205;28;20048;-76
2023/12/23 10:30:25;;;;;;;19.92;8.48;;;8.20;99.90;;;;;;5030625;28;20084;-76
2023/12/23 10:32:57;;;;;;;16.38;9.15;;;8.20;99.90;;;;;;5015364;28;20044;-78
2023/12/23 10:35:27;;;;;;;14.90;7.13;;;8.20;99.90;;;;;;5028324;28;20044;-77
2023/12/23 10:37:58;;;;;;;17.35;10.15;;;8.20;99.90;;;;;;5036578;28;20075;-77
2023/12/23 10:40:28;;;;;;;30.13;10.35;;;8.20;99.90;;;;;;5010527;28;20128;-77
2023/12/23 10:42:58;;;;;;;17.20;8.30;;;8.20;99.90;;;;;;5036575;28;20060;-77
2023/12/23 10:45:26;;;;;;;16.63;8.02;;;8.20;99.90;;;;;;5003862;28;20524;-77
2023/12/23 10:47:53;;;;;;;15.23;7.70;;;8.20;99.90;;;;;;5011331;28;20055;-77
2023/12/23 10:50:23;;;;;;;20.30;10.25;;;8.20;99.90;;;;;;5026198;28;20041;-76
2023/12/23 10:52:52;;;;;;;24.02;9.27;;;8.20;99.90;;;;;;5034780;28;20048;-77
2023/12/23 10:55:22;;;;;;;18.20;9.07;;;8.20;99.90;;;;;;5011481;28;20052;-77
2023/12/23 10:57:51;;;;;;;15.70;7.75;;;8.20;99.90;;;;;;5019583;28;20071;-77
2023/12/23 11:00:18;;;;;;;16.85;8.00;;;8.20;99.90;;;;;;5030915;28;20063;-77
2023/12/23 11:02:49;;;;;;;17.65;9.75;;;8.20;99.90;;;;;;5012595;28;20041;-77
2023/12/23 11:05:22;;;;;;;11.32;6.80;;;8.20;99.90;;;;;;5032090;28;20160;-78
2023/12/23 11:07:53;;;;;;;15.60;8.90;;;8.20;99.90;;;;;;5028020;28;20048;-77
2023/12/23 11:10:31;;;;;;;15.23;8.00;;;8.20;99.90;;;;;;5020494;28;20041;-77
2023/12/23 11:13:00;;;;;;;28.30;10.32;;;8.20;99.90;;;;;;5043763;28;20423;-77
2023/12/23 11:15:27;;;;;;;19.23;10.60;;;8.20;99.90;;;;;;5006503;28;20067;-77
2023/12/23 11:17:54;;;;;;;16.25;8.43;;;8.20;99.90;;;;;;5029129;28;20840;-77
2023/12/23 11:20:35;;;;;;;16.52;8.07;;;8.20;99.90;;;;;;5016286;28;22719;-78
2023/12/23 11:23:28;;;;;;;15.23;8.30;;;8.20;99.90;;;;;;5023228;28;20130;-79
2023/12/23 11:26:18;;;;;;;16.73;7.47;;;8.20;99.90;;;;;;5025638;28;20044;-80
2023/12/23 11:32:58;;;;;;;16.80;8.13;;;8.20;99.90;;;;;;4994423;28;20052;-80
2023/12/23 11:36:00;;;;;;;17.83;8.75;;;8.20;99.90;;;;;;5029394;28;20032;-80
2023/12/23 11:38:50;;;;;;;22.02;10.40;;;8.20;99.90;;;;;;5014789;28;20050;-79
2023/12/23 11:41:32;;;;;;;19.17;10.20;;;8.20;99.90;;;;;;5029925;28;20040;-82
2023/12/23 11:44:27;;;;;;;21.08;9.40;;;8.10;99.90;;;;;;5019820;28;20495;-81
2023/12/23 11:46:55;;;;;;;20.35;9.55;;;8.20;99.90;;;;;;5020092;28;20036;-80
2023/12/23 11:49:22;;;;;;;15.95;9.55;;;8.20;99.90;;;;;;5035477;28;20761;-82
2023/12/23 11:51:49;;;;;;;21.58;11.80;;;8.20;99.90;;;;;;5028677;28;20603;-79
2023/12/23 11:54:16;;;;;;;25.58;9.55;;;8.20;99.90;;;;;;5030650;28;20056;-79
2023/12/23 11:56:43;;;;;;;18.25;8.23;;;8.20;99.90;;;;;;5030035;28;20543;-80
2023/12/23 11:59:10;;;;;;;22.77;10.38;;;8.20;99.90;;;;;;5011521;28;20793;-79
2023/12/23 12:01:37;;;;;;;16.90;9.48;;;8.20;99.90;;;;;;4996211;28;20045;-79
2023/12/23 12:04:08;;;;;;;18.92;10.10;;;8.20;99.90;;;;;;5014697;28;20793;-80
2023/12/23 12:06:36;;;;;;;18.67;9.70;;;8.20;99.90;;;;;;5035185;28;20056;-78
2023/12/23 12:09:06;;;;;;;17.05;11.20;;;8.20;99.90;;;;;;5035222;28;20047;-79
2023/12/23 12:11:33;;;;;;;15.18;9.68;;;8.10;99.90;;;;;;5028558;28;20049;-79
2023/12/23 12:14:01;;;;;;;11.15;8.27;;;8.20;99.90;;;;;;5059918;28;20063;-79
2023/12/23 12:16:27;;;;;;;12.70;8.57;;;8.10;99.90;;;;;;5031748;28;20652;-80
2023/12/23 12:18:55;;;;;;;18.27;8.65;;;8.20;99.90;;;;;;5033439;28;20143;-79
2023/12/23 12:21:22;;;;;;;13.68;9.25;;;8.20;99.90;;;;;;5025566;28;20040;-79
2023/12/23 12:23:49;;;;;;;10.13;8.80;;;8.10;99.90;;;;;;5027565;28;20136;-78
2023/12/23 12:26:16;;;;;;;13.27;8.88;;;8.10;99.90;;;;;;5011592;28;20140;-80
2023/12/23 12:28:43;;;;;;;16.67;10.15;;;8.20;99.90;;;;;;4986960;28;20139;-79
2023/12/23 12:31:14;;;;;;;14.52;10.20;;;8.20;99.90;;;;;;5009582;28;20107;-79
2023/12/23 12:33:42;;;;;;;12.00;8.13;;;8.10;99.90;;;;;;5002367;28;20060;-79
2023/12/23 12:36:13;;;;;;;14.75;8.82;;;8.20;99.90;;;;;;5000214;28;20044;-80
2023/12/23 12:38:41;;;;;;;17.77;10.20;;;8.20;99.90;;;;;;5032616;28;20053;-78
2023/12/23 12:41:09;;;;;;;16.60;9.68;;;8.20;99.90;;;;;;5042448;28;20045;-78
2023/12/23 12:43:43;;;;;;;12.57;10.07;;;8.20;99.90;;;;;;5005583;28;20492;-79
2023/12/23 12:46:17;;;;;;;14.50;11.70;;;8.20;99.90;;;;;;5034998;28;20041;-79
2023/12/23 12:48:45;;;;;;;12.65;11.07;;;8.20;99.90;;;;;;5035234;28;20041;-78
2023/12/23 12:51:15;;;;;;;13.15;11.77;;;8.20;99.90;;;;;;5021125;28;20053;-78
2023/12/23 12:53:44;;;;;;;9.88;8.88;;;8.20;99.90;;;;;;5051572;28;20037;-77
2023/12/23 12:56:11;;;;;;;16.55;12.57;;;8.20;99.90;;;;;;5046081;28;20033;-78